Time;durP1;ratioP1;P1;durP2;ratioP2;P2;SDS_P1;SDS_P2;PMS_P1;PMS_P2;Temp;Humidity;BMP_temperature;BMP_pressure;BME280_temperature;BME280_humidity;BME280_pressure;Samples;Min_cycle;Max_cycle;Signal;HPM_P1;HPM_P2
2021/05/22 03:23:34;;;;;;;10.93;4.45;;;;;;;7.89;69.18;96373.56;1775958;79;26057;-94
2021/05/22 03:26:01;;;;;;;11.48;4.72;;;;;;;7.89;69.11;96378.93;1720914;81;25722;-94
2021/05/22 03:28:28;;;;;;;10.98;5.55;;;;;;;7.94;69.13;96379.93;1721502;81;27550;-94
2021/05/22 03:30:54;;;;;;;11.00;5.17;;;;;;;7.95;69.13;96372.70;1721092;81;25836;-95
2021/05/22 03:33:21;;;;;;;8.88;4.40;;;;;;;7.93;69.13;96378.80;1722117;81;25638;-95
2021/05/22 03:35:47;;;;;;;11.05;5.22;;;;;;;7.95;69.20;96375.38;1721109;81;26240;-93
2021/05/22 03:38:14;;;;;;;14.33;5.85;;;;;;;8.03;69.27;96377.78;1735393;81;25823;-91
2021/05/22 03:40:40;;;;;;;9.85;5.70;;;;;;;8.10;69.30;96374.50;1726416;81;28639;-93
2021/05/22 03:43:07;;;;;;;12.00;5.53;;;;;;;8.15;69.38;96370.64;1720569;81;25883;-94
2021/05/22 03:45:34;;;;;;;9.45;5.30;;;;;;;8.24;69.41;96363.11;1720704;81;25214;-94
2021/05/22 03:48:00;;;;;;;11.48;6.28;;;;;;;8.33;69.37;96369.07;1720686;81;25623;-93
2021/05/22 03:50:27;;;;;;;9.40;5.83;;;;;;;8.38;69.36;96363.31;1720836;82;25642;-95
2021/05/22 03:52:54;;;;;;;9.60;4.90;;;;;;;8.46;69.40;96347.39;1720846;81;27541;-95
2021/05/22 03:55:20;;;;;;;11.22;4.62;;;;;;;8.52;69.39;96346.52;1720853;81;25231;-95
2021/05/22 03:57:47;;;;;;;8.45;3.90;;;;;;;8.58;69.41;96345.60;1720964;81;25643;-96
2021/05/22 04:00:16;;;;;;;7.85;3.95;;;;;;;8.66;69.35;96352.88;1734536;81;25590;-93
2021/05/22 04:02:42;;;;;;;9.80;4.45;;;;;;;8.75;69.40;96342.62;1727642;81;25646;-95
2021/05/22 04:05:10;;;;;;;20.20;8.35;;;;;;;8.82;69.42;96344.69;1728886;81;27493;-96
2021/05/22 04:07:36;;;;;;;42.55;17.20;;;;;;;8.89;69.49;96345.45;1720767;81;25602;-93
2021/05/22 04:10:05;;;;;;;64.77;24.37;;;;;;;8.94;69.47;96344.23;1729741;81;25508;-95
2021/05/22 04:12:31;;;;;;;81.37;30.95;;;;;;;8.98;69.54;96358.89;1732572;81;25196;-95
2021/05/22 04:14:58;;;;;;;79.62;28.15;;;;;;;9.02;69.52;96360.09;1742030;81;25652;-94
2021/05/22 04:17:24;;;;;;;60.25;23.65;;;;;;;9.06;69.40;96360.98;1720656;81;27246;-91
2021/05/22 04:19:51;;;;;;;55.52;21.68;;;;;;;9.10;69.38;96365.67;1745702;81;25670;-95
2021/05/22 04:22:18;;;;;;;65.67;23.15;;;;;;;9.18;69.43;96365.87;1731736;81;25509;-93
2021/05/22 04:24:44;;;;;;;73.25;24.80;;;;;;;9.22;69.48;96361.68;1740397;81;26239;-95
2021/05/22 04:27:11;;;;;;;62.35;21.52;;;;;;;9.30;69.59;96362.70;1727055;81;25299;-96
2021/05/22 04:29:37;;;;;;;45.95;16.82;;;;;;;9.33;69.49;96364.94;1726900;81;27281;-96
2021/05/22 04:32:05;;;;;;;34.73;12.78;;;;;;;9.39;69.41;96381.55;1728166;81;25606;-96
2021/05/22 04:34:31;;;;;;;33.23;13.13;;;;;;;9.45;69.23;96376.58;1745016;81;25546;-94
2021/05/22 04:36:58;;;;;;;34.33;13.50;;;;;;;9.51;69.21;96381.06;1725915;81;25273;-95
2021/05/22 04:39:26;;;;;;;47.80;15.23;;;;;;;9.59;69.45;96394.72;1726807;81;25570;-95
2021/05/22 04:41:53;;;;;;;28.77;12.18;;;;;;;9.61;69.50;96390.76;1726977;81;27521;-96
2021/05/22 04:44:19;;;;;;;26.42;10.80;;;;;;;9.66;69.48;96378.75;1750466;81;25475;-96
2021/05/22 04:46:46;;;;;;;22.77;8.88;;;;;;;9.72;69.33;96373.80;1743888;81;25247;-96
2021/05/22 04:49:13;;;;;;;24.92;9.23;;;;;;;9.77;69.33;96379.86;1733386;81;25200;-96
2021/05/22 04:51:40;;;;;;;20.25;8.55;;;;;;;9.84;69.37;96390.52;1730594;83;25198;-96
2021/05/22 04:54:08;;;;;;;26.33;9.00;;;;;;;9.90;69.34;96379.62;1750332;81;27371;-95
2021/05/22 04:56:36;;;;;;;20.88;8.35;;;;;;;9.95;69.40;96364.11;1746490;81;25222;-96
2021/05/22 04:59:03;;;;;;;19.50;7.55;;;;;;;10.01;69.45;96353.75;1728511;81;25198;-89
2021/05/22 05:01:31;;;;;;;15.88;7.45;;;;;;;10.09;69.61;96345.31;1736041;81;25383;-96
2021/05/22 05:03:58;;;;;;;7.50;4.70;;;;;;;10.15;69.46;96347.06;1729753;81;25709;-94
2021/05/22 05:06:25;;;;;;;7.67;3.83;;;;;;;10.24;69.34;96352.45;1741549;81;27483;-94
2021/05/22 05:08:53;;;;;;;7.45;3.05;;;;;;;10.33;69.20;96346.98;1736079;79;25664;-96
2021/05/22 05:11:19;;;;;;;10.35;4.05;;;;;;;10.41;69.02;96339.88;1734630;80;25199;-84
2021/05/22 05:13:47;;;;;;;11.73;4.47;;;;;;;10.52;68.97;96349.53;1741909;81;25654;-86
2021/05/22 05:16:14;;;;;;;10.90;4.62;;;;;;;10.62;68.92;96350.61;1730310;81;25223;-87
2021/05/22 05:18:41;;;;;;;9.55;4.78;;;;;;;10.72;68.79;96351.34;1747802;79;27447;-91
2021/05/22 05:21:08;;;;;;;12.95;6.40;;;;;;;10.80;68.59;96349.09;1735730;78;25166;-87
2021/05/22 05:23:40;;;;;;;16.60;7.30;;;;;;;10.89;68.66;96354.92;1748388;78;25216;-94
2021/05/22 05:26:07;;;;;;;15.08;7.65;;;;;;;10.97;68.80;96355.92;1755710;79;25081;-87
2021/05/22 05:28:33;;;;;;;11.88;6.47;;;;;;;11.06;68.87;96363.94;1753514;79;25249;-92
2021/05/22 05:31:01;;;;;;;16.95;7.30;;;;;;;11.13;68.53;96352.98;1745378;81;27559;-96
2021/05/22 05:33:28;;;;;;;15.60;8.13;;;;;;;11.19;68.39;96354.20;1743997;81;25431;-94
2021/05/22 05:35:55;;;;;;;13.80;6.03;;;;;;;11.28;68.42;96367.31;1725309;81;25172;-95
2021/05/22 05:38:22;;;;;;;11.68;6.30;;;;;;;11.35;68.59;96370.72;1724226;82;25268;-88
2021/05/22 05:40:49;;;;;;;14.87;6.75;;;;;;;11.44;68.56;96374.66;1744321;81;25715;-91
2021/05/22 05:43:18;;;;;;;11.97;7.47;;;;;;;11.51;68.68;96375.33;1753977;81;28055;-82
2021/05/22 05:45:45;;;;;;;17.35;7.95;;;;;;;11.61;68.63;96360.64;1752797;81;25349;-82
2021/05/22 05:48:12;;;;;;;18.15;9.18;;;;;;;11.72;68.65;96362.98;1723778;81;25590;-89
2021/05/22 05:50:38;;;;;;;23.12;12.82;;;;;;;11.80;68.74;96354.00;1724058;83;25641;-83
2021/05/22 05:53:05;;;;;;;21.23;12.28;;;;;;;11.90;68.58;96343.88;1723826;81;25724;-83
2021/05/22 05:55:32;;;;;;;27.07;10.63;;;;;;;12.03;68.53;96350.85;1722733;81;27413;-92
2021/05/22 05:57:58;;;;;;;15.25;8.68;;;;;;;12.16;68.69;96361.34;1721334;81;25686;-89
2021/05/22 06:00:25;;;;;;;13.08;8.03;;;;;;;12.26;68.36;96361.50;1724157;81;25645;-91
2021/05/22 06:02:53;;;;;;;14.95;7.95;;;;;;;12.36;68.21;96361.65;1727884;81;25641;-89
2021/05/22 06:05:19;;;;;;;13.62;8.30;;;;;;;12.45;68.00;96360.16;1727906;81;25259;-93
2021/05/22 06:07:47;;;;;;;17.23;8.98;;;;;;;12.55;68.09;96354.91;1726378;81;28042;-93
2021/05/22 06:10:13;;;;;;;22.55;11.38;;;;;;;12.64;68.53;96344.47;1727792;80;25628;-95
2021/05/22 06:12:41;;;;;;;20.20;10.65;;;;;;;12.72;68.65;96339.14;1742152;81;25654;-92
2021/05/22 06:15:21;;;;;;;19.77;8.50;;;;;;;12.78;68.55;96346.28;1720880;81;25616;-90
2021/05/22 06:17:38;;;;;;;19.50;10.53;;;;;;;12.86;68.58;96346.66;1729521;81;25240;-87
2021/05/22 06:20:06;;;;;;;19.07;10.55;;;;;;;12.95;68.43;96360.57;1730580;81;27338;-94
2021/05/22 06:22:32;;;;;;;20.82;10.98;;;;;;;13.07;68.55;96370.75;1737995;81;25788;-94
2021/05/22 06:25:00;;;;;;;20.82;10.43;;;;;;;13.20;68.56;96376.36;1731552;81;25661;-89
2021/05/22 06:27:26;;;;;;;18.65;7.50;;;;;;;13.33;68.61;96380.03;1734149;81;25202;-93
2021/05/22 06:29:53;;;;;;;15.40;7.75;;;;;;;13.43;68.59;96374.73;1726717;81;25677;-92
2021/05/22 06:32:20;;;;;;;17.52;7.55;;;;;;;13.41;68.12;96354.36;1741836;81;27397;-92
2021/05/22 06:34:46;;;;;;;14.47;7.37;;;;;;;13.38;68.15;96354.89;1739196;81;26499;-83
2021/05/22 06:37:13;;;;;;;14.78;7.55;;;;;;;13.38;68.29;96368.45;1678033;80;25588;-91
2021/05/22 06:39:39;;;;;;;13.80;7.35;;;;;;;13.43;68.31;96373.91;1687622;83;25699;-89
2021/05/22 06:42:06;;;;;;;17.00;7.00;;;;;;;13.49;68.15;96372.91;1697989;83;25165;-90
2021/05/22 06:44:41;;;;;;;11.50;6.33;;;;;;;13.55;67.91;96367.80;1717434;83;27400;-96
2021/05/22 06:47:04;;;;;;;13.77;6.03;;;;;;;13.62;67.61;96365.19;1697823;83;25279;-89
2021/05/22 06:49:34;;;;;;;13.98;6.22;;;;;;;13.71;67.30;96351.98;1688302;83;25344;-88
2021/05/22 06:52:02;;;;;;;13.93;6.85;;;;;;;13.78;67.28;96351.76;1727685;82;25515;-86
2021/05/22 06:54:33;;;;;;;12.90;6.45;;;;;;;13.84;66.97;96356.99;1749938;82;25136;-83
2021/05/22 06:56:58;;;;;;;10.30;5.53;;;;;;;13.92;66.57;96353.80;1735709;81;27309;-95
2021/05/22 06:59:24;;;;;;;8.75;5.30;;;;;;;13.96;66.72;96361.71;1724846;82;25287;-86
2021/05/22 07:01:51;;;;;;;12.55;5.37;;;;;;;14.03;66.43;96359.59;1722179;82;25220;-83
2021/05/22 07:04:18;;;;;;;11.15;5.62;;;;;;;14.06;65.95;96345.52;1723619;83;25582;-83
2021/05/22 07:06:44;;;;;;;12.90;6.37;;;;;;;14.13;66.02;96348.00;1723526;82;25199;-83
2021/05/22 07:09:11;;;;;;;14.98;6.85;;;;;;;14.22;66.14;96355.96;1723509;82;27285;-84
2021/05/22 07:11:37;;;;;;;11.38;6.25;;;;;;;14.29;66.42;96355.73;1724029;82;25159;-83
2021/05/22 07:14:04;;;;;;;14.60;6.70;;;;;;;14.35;66.62;96345.20;1723878;83;25221;-83
2021/05/22 07:16:31;;;;;;;10.93;5.60;;;;;;;14.40;66.53;96337.92;1742099;81;25181;-84
2021/05/22 07:18:57;;;;;;;11.45;5.75;;;;;;;14.45;66.23;96337.16;1753641;82;25121;-83
2021/05/22 07:21:24;;;;;;;12.07;6.75;;;;;;;14.54;66.07;96336.11;1728849;82;28396;-85
2021/05/22 07:23:51;;;;;;;11.48;6.42;;;;;;;14.63;66.01;96342.14;1727032;82;25324;-84
2021/05/22 07:26:17;;;;;;;11.05;6.12;;;;;;;14.74;66.28;96344.38;1666050;86;25165;-83
2021/05/22 07:28:44;;;;;;;8.50;4.85;;;;;;;14.83;66.31;96331.95;1693080;84;25390;-83
2021/05/22 07:31:11;;;;;;;8.10;4.28;;;;;;;14.96;66.43;96341.52;1673022;84;25078;-83
2021/05/22 07:33:41;;;;;;;10.25;4.90;;;;;;;15.10;66.12;96327.16;1692912;84;27354;-86
2021/05/22 07:36:07;;;;;;;8.60;4.08;;;;;;;15.26;65.77;96321.78;1688946;84;25822;-88
2021/05/22 07:38:34;;;;;;;6.70;2.65;;;;;;;15.37;65.39;96318.00;1686743;84;25632;-93
2021/05/22 07:41:01;;;;;;;3.65;2.37;;;;;;;15.46;64.64;96325.91;1690683;83;26112;-95
2021/05/22 07:43:28;;;;;;;3.80;2.85;;;;;;;15.55;63.78;96324.89;1680589;84;25631;-94
2021/05/22 07:45:57;;;;;;;3.55;2.10;;;;;;;15.66;63.76;96336.89;1700456;83;27535;-94
2021/05/22 07:48:25;;;;;;;5.65;2.72;;;;;;;15.79;63.30;96349.15;1693422;83;25599;-92
2021/05/22 07:50:53;;;;;;;4.97;3.00;;;;;;;15.93;63.17;96339.38;1689576;83;25668;-89
2021/05/22 07:53:21;;;;;;;6.95;3.10;;;;;;;16.12;62.84;96336.38;1671685;84;26329;-91
2021/05/22 07:55:48;;;;;;;4.58;2.50;;;;;;;16.26;62.26;96317.59;1671762;84;25580;-93
2021/05/22 07:58:16;;;;;;;6.25;3.05;;;;;;;16.33;61.17;96320.02;1666682;84;28077;-94
2021/05/22 08:00:45;;;;;;;6.95;2.72;;;;;;;16.52;61.02;96325.19;1694738;83;26544;-89
2021/05/22 08:03:12;;;;;;;6.62;2.85;;;;;;;16.71;60.75;96333.07;1693559;82;25262;-91
2021/05/22 08:05:39;;;;;;;6.92;2.40;;;;;;;16.85;60.28;96325.95;1692614;83;25675;-91
2021/05/22 08:08:06;;;;;;;8.30;2.67;;;;;;;17.02;60.02;96325.64;1686786;84;25671;-92
2021/05/22 08:10:32;;;;;;;4.33;2.72;;;;;;;17.06;59.85;96325.33;1689591;83;28164;-89
2021/05/22 08:12:59;;;;;;;9.63;2.98;;;;;;;17.10;59.74;96328.33;1694941;83;25693;-91
2021/05/22 08:15:26;;;;;;;5.40;2.80;;;;;;;17.11;59.02;96332.69;1697299;84;25730;-90
2021/05/22 08:17:53;;;;;;;4.45;2.50;;;;;;;17.07;58.71;96337.05;1696908;84;26224;-96
2021/05/22 08:20:19;;;;;;;11.33;2.70;;;;;;;16.97;58.88;96328.91;1671015;84;25590;-93
2021/05/22 08:22:46;;;;;;;4.92;2.75;;;;;;;16.90;59.08;96325.14;1670801;84;27341;-87
2021/05/22 08:25:13;;;;;;;3.35;2.50;;;;;;;16.85;59.43;96331.41;1670675;84;25650;-91
2021/05/22 08:27:41;;;;;;;8.23;3.20;;;;;;;16.82;59.57;96331.14;1670728;84;25237;-92
2021/05/22 08:30:10;;;;;;;7.15;2.77;;;;;;;16.75;59.86;96327.35;1670783;84;25709;-94
2021/05/22 08:32:38;;;;;;;4.78;2.67;;;;;;;16.63;59.90;96335.01;1670856;84;25659;-94
2021/05/22 08:35:07;;;;;;;2.65;2.30;;;;;;;16.56;60.19;96326.25;1670918;84;27334;-93
2021/05/22 08:37:33;;;;;;;6.05;2.58;;;;;;;16.43;60.57;96320.83;1670823;84;25252;-90
2021/05/22 08:40:00;;;;;;;2.90;2.30;;;;;;;16.39;60.60;96320.30;1670905;84;25714;-93
2021/05/22 08:42:29;;;;;;;4.17;2.60;;;;;;;16.39;60.39;96315.67;1670847;84;26428;-88
2021/05/22 08:45:12;;;;;;;8.00;3.08;;;;;;;16.36;60.88;96308.59;1670800;84;26437;-93
2021/05/22 08:47:40;;;;;;;5.83;3.30;;;;;;;16.38;61.05;96311.31;1670306;84;28170;-93
2021/05/22 08:50:11;;;;;;;9.75;4.42;;;;;;;16.39;61.38;96303.97;1671068;84;25238;-91
2021/05/22 08:52:38;;;;;;;8.55;5.08;;;;;;;16.38;61.67;96303.69;1671089;84;25675;-94
2021/05/22 08:55:06;;;;;;;12.25;6.28;;;;;;;16.35;61.82;96302.88;1670049;83;26252;-93
2021/05/22 08:57:33;;;;;;;9.60;6.35;;;;;;;16.34;61.96;96293.88;1675073;84;25217;-90
2021/05/22 09:00:00;;;;;;;9.45;4.58;;;;;;;16.33;62.22;96291.43;1663909;84;28047;-88
2021/05/22 09:02:27;;;;;;;10.05;6.20;;;;;;;16.30;62.30;96296.09;1696073;84;25670;-94
2021/05/22 09:05:25;;;;;;;15.85;8.93;;;;;;;16.29;62.29;96298.53;1695360;84;25614;-93
2021/05/22 09:07:59;;;;;;;21.60;9.08;;;;;;;16.28;61.92;96299.63;1683325;84;25991;-92
2021/05/22 09:10:35;;;;;;;16.07;7.55;;;;;;;16.26;61.39;96303.98;1689947;83;26241;-86
2021/05/22 09:13:09;;;;;;;15.35;6.55;;;;;;;16.27;61.38;96302.89;1702196;83;27598;-92
2021/05/22 09:15:39;;;;;;;17.45;6.53;;;;;;;16.25;62.00;96317.32;1691800;83;25576;-94
2021/05/22 09:18:16;;;;;;;15.58;8.20;;;;;;;16.17;62.37;96318.70;1689552;83;25656;-90
2021/05/22 09:20:53;;;;;;;22.90;10.10;;;;;;;16.07;62.51;96332.83;1689594;83;25584;-94
2021/05/22 09:23:23;;;;;;;20.50;10.30;;;;;;;15.99;63.14;96341.00;1689720;83;25667;-92
2021/05/22 09:25:54;;;;;;;21.10;9.35;;;;;;;15.92;63.29;96341.83;1691885;83;26956;-86
2021/05/22 09:28:24;;;;;;;6.45;3.42;;;;;;;15.88;62.32;96366.57;1689555;83;25568;-92
2021/05/22 09:30:53;;;;;;;5.12;2.10;;;;;;;15.77;61.63;96373.09;1692160;83;25228;-89
2021/05/22 09:33:31;;;;;;;3.52;2.25;;;;;;;15.61;61.11;96376.30;1705705;83;25669;-90
2021/05/22 09:36:11;;;;;;;3.17;1.40;;;;;;;15.49;61.02;96390.11;1679472;83;25765;-91
2021/05/22 09:38:44;;;;;;;5.08;1.90;;;;;;;15.35;60.90;96401.20;1671148;84;28140;-92
2021/05/22 09:41:20;;;;;;;3.60;1.90;;;;;;;15.13;60.77;96393.77;1679123;83;25237;-86
2021/05/22 09:44:11;;;;;;;7.65;1.98;;;;;;;15.00;61.12;96394.23;1689732;84;25745;-87
2021/05/22 09:46:52;;;;;;;3.85;2.33;;;;;;;14.88;61.27;96399.06;1671085;84;26175;-85
2021/05/22 09:49:30;;;;;;;8.63;3.60;;;;;;;14.78;61.52;96406.61;1689951;84;25702;-84
2021/05/22 09:52:09;;;;;;;7.62;3.80;;;;;;;14.66;61.80;96406.81;1670731;84;28065;-85
2021/05/22 09:54:50;;;;;;;11.48;5.45;;;;;;;14.54;61.94;96412.15;1670790;84;25692;-89
2021/05/22 09:57:39;;;;;;;21.57;12.50;;;;;;;14.36;62.08;96415.53;1670915;84;25674;-85
2021/05/22 10:00:15;;;;;;;14.07;9.03;;;;;;;14.24;62.34;96418.14;1681907;84;25654;-85
2021/05/22 10:02:53;;;;;;;15.80;9.05;;;;;;;14.17;62.60;96420.22;1677285;84;25259;-85
2021/05/22 10:05:33;;;;;;;17.50;11.03;;;;;;;14.12;63.17;96423.73;1669608;84;28021;-85
2021/05/22 10:08:03;;;;;;;21.87;12.30;;;;;;;14.05;63.33;96426.64;1694562;84;25662;-85
2021/05/22 10:10:46;;;;;;;21.55;13.85;;;;;;;14.01;63.27;96425.50;1685473;84;25901;-85
2021/05/22 10:13:15;;;;;;;12.88;8.68;;;;;;;14.03;63.48;96427.96;1676167;84;26223;-86
2021/05/22 10:15:43;;;;;;;11.75;7.70;;;;;;;14.06;63.81;96435.59;1698948;83;25606;-85
2021/05/22 10:18:10;;;;;;;9.75;6.12;;;;;;;14.04;63.83;96438.56;1679208;84;27514;-85
2021/05/22 10:20:37;;;;;;;7.95;6.00;;;;;;;14.05;63.91;96445.63;1686588;84;25759;-89
2021/05/22 10:23:06;;;;;;;7.40;3.65;;;;;;;14.08;63.80;96447.55;1670731;84;25635;-85
2021/05/22 10:25:33;;;;;;;5.30;3.55;;;;;;;14.01;63.39;96440.96;1695389;83;25750;-90
2021/05/22 10:28:00;;;;;;;8.73;5.80;;;;;;;13.97;63.38;96442.57;1685426;84;25687;-86
2021/05/22 10:30:27;;;;;;;9.70;5.62;;;;;;;13.89;63.67;96441.12;1690551;84;28151;-90
2021/05/22 10:33:04;;;;;;;6.17;4.12;;;;;;;13.84;63.80;96443.80;1681951;84;25663;-84
2021/05/22 10:35:50;;;;;;;11.65;8.00;;;;;;;13.79;63.69;96451.86;1698461;82;25602;-88
2021/05/22 10:38:37;;;;;;;6.62;4.17;;;;;;;13.77;63.46;96445.05;1697859;84;25635;-85
2021/05/22 10:41:15;;;;;;;6.12;3.45;;;;;;;13.68;63.57;96448.75;1691752;84;25491;-85
2021/05/22 10:43:45;;;;;;;3.02;2.70;;;;;;;13.68;63.70;96450.11;1669357;84;27374;-85
2021/05/22 10:46:14;;;;;;;25.55;14.03;;;;;;;13.65;63.74;96454.68;1690576;84;25711;-86
2021/05/22 10:48:54;;;;;;;28.75;13.10;;;;;;;13.62;63.77;96448.43;1687801;84;25706;-87
2021/05/22 10:51:35;;;;;;;17.95;8.93;;;;;;;13.54;63.83;96455.63;1698906;84;25955;-85
2021/05/22 10:54:13;;;;;;;23.25;12.80;;;;;;;13.50;63.92;96464.02;1699075;84;26593;-84
2021/05/22 10:57:05;;;;;;;18.52;8.05;;;;;;;13.51;64.52;96466.47;1670646;84;27351;-89
2021/05/22 10:59:31;;;;;;;;;;;;;;;13.48;64.16;96462.91;1697728;84;25655;-85
2021/05/22 11:02:00;;;;;;;14.13;7.33;;;;;;;13.43;64.29;96469.60;1686005;84;25713;-86
2021/05/22 11:04:29;;;;;;;21.37;10.98;;;;;;;13.41;64.07;96473.09;1690476;84;25651;-90
2021/05/22 11:07:17;;;;;;;12.45;7.10;;;;;;;13.45;64.29;96470.71;1670593;84;25671;-86
2021/05/22 11:09:48;;;;;;;10.90;6.25;;;;;;;13.48;64.28;96474.28;1670586;84;27348;-87
2021/05/22 11:12:29;;;;;;;6.85;3.67;;;;;;;13.52;64.35;96465.94;1671122;84;25713;-87
2021/05/22 11:14:55;;;;;;;8.23;3.17;;;;;;;13.57;64.19;96464.63;1674028;84;25608;-88
2021/05/22 11:17:28;;;;;;;6.25;3.60;;;;;;;13.57;64.19;96463.27;1699291;84;25642;-86
2021/05/22 11:20:07;;;;;;;8.68;5.53;;;;;;;13.57;64.06;96468.16;1674947;84;25615;-87
2021/05/22 11:22:44;;;;;;;4.97;3.40;;;;;;;13.61;64.22;96471.19;1678906;83;27524;-89
2021/05/22 11:25:18;;;;;;;19.62;12.50;;;;;;;13.62;63.99;96474.19;1673069;84;25660;-88
2021/05/22 11:30:29;;;;;;;26.00;18.50;;;;;;;13.62;64.32;96476.91;1683906;84;26149;-88
2021/05/22 11:33:06;;;;;;;16.17;12.58;;;;;;;13.64;64.34;96484.25;1676200;84;25664;-88
2021/05/22 11:35:37;;;;;;;11.85;7.47;;;;;;;13.64;64.12;96473.41;1676385;84;27335;-91
2021/05/22 11:38:21;;;;;;;16.73;11.35;;;;;;;13.67;64.45;96478.30;1675904;84;25801;-88
2021/05/22 11:40:50;;;;;;;9.18;6.65;;;;;;;13.79;64.48;96487.13;1696170;84;25654;-88
2021/05/22 11:43:23;;;;;;;10.45;6.78;;;;;;;13.90;64.64;96491.59;1676301;84;25356;-88
2021/05/22 11:46:00;;;;;;;6.28;4.70;;;;;;;13.99;64.63;96495.52;1676625;84;26624;-94
2021/05/22 11:48:48;;;;;;;4.92;3.52;;;;;;;14.05;64.54;96496.37;1675993;84;28094;-89
2021/05/22 11:51:19;;;;;;;3.12;2.42;;;;;;;14.12;64.39;96501.08;1696257;84;25752;-89
2021/05/22 11:54:02;;;;;;;4.00;2.02;;;;;;;14.11;64.10;96495.90;1676698;84;25754;-87
2021/05/22 11:56:38;;;;;;;4.85;3.15;;;;;;;14.08;64.07;96507.25;1676263;84;25634;-92
2021/05/22 11:59:06;;;;;;;5.33;2.95;;;;;;;14.04;64.28;96503.69;1676257;84;25675;-89
2021/05/22 12:01:37;;;;;;;12.25;6.22;;;;;;;14.07;63.94;96511.86;1676361;84;27417;-92
2021/05/22 12:04:07;;;;;;;3.52;2.45;;;;;;;14.12;64.05;96501.61;1676769;84;25818;-94
2021/05/22 12:06:41;;;;;;;6.40;3.92;;;;;;;14.18;63.85;96510.07;1683638;84;25312;-89
2021/05/22 12:09:17;;;;;;;4.80;3.20;;;;;;;14.14;63.88;96511.11;1738748;80;26373;-91
2021/05/22 12:12:04;;;;;;;4.00;2.75;;;;;;;14.13;63.87;96505.97;1726332;81;25747;-93
2021/05/22 12:14:45;;;;;;;4.40;2.70;;;;;;;14.14;63.71;96514.36;1726731;81;28002;-90
2021/05/22 12:17:17;;;;;;;8.73;3.92;;;;;;;14.04;63.57;96509.65;1676537;84;25679;-89
2021/05/22 12:19:50;;;;;;;4.92;3.67;;;;;;;13.98;63.80;96504.72;1691520;83;26234;-91
2021/05/22 12:22:27;;;;;;;7.28;4.20;;;;;;;13.91;63.99;96512.22;1665982;84;25761;-88
2021/05/22 12:24:55;;;;;;;3.33;2.42;;;;;;;13.92;64.03;96511.15;1732061;80;26185;-94
2021/05/22 12:27:22;;;;;;;3.92;2.25;;;;;;;13.96;64.03;96515.54;1725637;81;27393;-89
2021/05/22 12:29:52;;;;;;;3.00;2.40;;;;;;;14.01;64.28;96519.11;1725332;81;25578;-89
2021/05/22 12:32:19;;;;;;;2.90;2.70;;;;;;;14.06;64.20;96512.39;1730087;81;25773;-88
2021/05/22 12:34:47;;;;;;;5.70;2.98;;;;;;;14.13;64.13;96516.25;1741533;80;25643;-87
2021/05/22 12:37:21;;;;;;;4.00;3.37;;;;;;;14.16;64.10;96517.11;1718921;81;25613;-89
2021/05/22 12:39:51;;;;;;;10.82;4.83;;;;;;;14.19;64.15;96516.61;1725623;81;27374;-93
2021/05/22 12:42:22;;;;;;;8.43;4.85;;;;;;;14.22;64.11;96520.70;1725518;81;25620;-90
2021/05/22 12:44:51;;;;;;;9.25;5.37;;;;;;;14.14;63.85;96521.14;1725542;81;25713;-91
2021/05/22 12:47:21;;;;;;;8.03;4.80;;;;;;;14.13;64.21;96516.25;1725619;81;26053;-91
2021/05/22 12:49:57;;;;;;;4.42;2.52;;;;;;;14.12;64.12;96517.36;1725906;81;25768;-94
2021/05/22 12:52:26;;;;;;;5.80;2.77;;;;;;;14.06;63.86;96510.22;1725896;81;27850;-89
2021/05/22 12:54:54;;;;;;;4.90;2.30;;;;;;;13.98;63.85;96511.50;1736024;81;25634;-91
2021/05/22 12:57:23;;;;;;;4.92;2.72;;;;;;;13.88;63.63;96512.75;1670819;84;26322;-88
2021/05/22 12:59:58;;;;;;;4.08;2.20;;;;;;;13.79;63.74;96510.71;1657135;84;26242;-91
2021/05/22 13:02:29;;;;;;;6.12;3.22;;;;;;;13.70;63.73;96510.34;1678380;83;25666;-95
2021/05/22 13:05:07;;;;;;;4.20;2.30;;;;;;;13.67;64.09;96514.91;1696290;84;27351;-90
2021/05/22 13:07:55;;;;;;;3.83;2.27;;;;;;;13.72;64.24;96507.38;1677473;84;25653;-90
2021/05/22 13:10:33;;;;;;;4.53;2.67;;;;;;;13.87;64.61;96508.39;1685998;83;25575;-91
2021/05/22 13:13:11;;;;;;;4.50;2.60;;;;;;;14.09;64.32;96512.44;1691630;83;25589;-87
2021/05/22 13:15:39;;;;;;;5.97;3.67;;;;;;;14.30;64.34;96505.31;1703943;83;25656;-88
2021/05/22 13:18:13;;;;;;;3.37;2.17;;;;;;;14.57;64.28;96503.97;1693914;83;27344;-89
2021/05/22 13:20:44;;;;;;;2.45;1.70;;;;;;;14.69;63.82;96506.80;1704822;83;25688;-92
2021/05/22 13:23:21;;;;;;;5.80;2.60;;;;;;;14.73;63.23;96510.61;1686120;83;25185;-89
2021/05/22 13:25:57;;;;;;;4.37;2.22;;;;;;;14.77;63.08;96504.95;1700756;82;25929;-91
2021/05/22 13:28:31;;;;;;;3.67;2.20;;;;;;;14.78;62.79;96511.20;1711984;82;25651;-88
2021/05/22 13:31:15;;;;;;;6.45;3.02;;;;;;;14.76;62.54;96510.10;1701818;82;27363;-89
2021/05/22 13:33:50;;;;;;;5.40;2.50;;;;;;;14.69;62.35;96502.72;1701340;82;25749;-90
2021/05/22 13:36:20;;;;;;;8.53;4.42;;;;;;;14.64;62.00;96503.20;1729510;81;25651;-90
2021/05/22 13:38:48;;;;;;;9.03;4.25;;;;;;;14.59;61.93;96503.17;1731056;81;25995;-86
2021/05/22 13:41:31;;;;;;;5.42;3.70;;;;;;;14.59;62.03;96502.64;1749383;80;25565;-87
2021/05/22 13:43:58;;;;;;;7.72;4.05;;;;;;;14.54;61.74;96497.69;1752167;81;27326;-89
2021/05/22 13:46:25;;;;;;;6.28;4.10;;;;;;;14.49;61.66;96507.95;1690095;83;25770;-91
2021/05/22 13:48:52;;;;;;;6.40;3.10;;;;;;;14.44;61.53;96502.49;1671925;84;25265;-90
2021/05/22 13:51:19;;;;;;;3.40;2.42;;;;;;;14.42;61.50;96510.08;1671887;84;26429;-92
2021/05/22 13:53:46;;;;;;;3.27;1.80;;;;;;;14.37;61.61;96509.98;1671963;84;25667;-92
2021/05/22 13:56:12;;;;;;;2.70;1.47;;;;;;;14.29;61.42;96518.59;1671860;84;27312;-93
2021/05/22 13:58:41;;;;;;;2.02;1.65;;;;;;;14.23;61.43;96514.20;1672207;84;25672;-87
2021/05/22 14:01:08;;;;;;;1.60;1.20;;;;;;;14.19;61.45;96514.42;1671884;84;25581;-93
2021/05/22 14:03:38;;;;;;;3.52;1.55;;;;;;;14.12;61.24;96520.61;1672123;84;25647;-92
2021/05/22 14:06:03;;;;;;;1.72;1.62;;;;;;;14.08;61.40;96536.57;1671598;84;25670;-91
2021/05/22 14:08:30;;;;;;;2.20;1.40;;;;;;;14.03;61.16;96520.22;1729038;81;27293;-90
2021/05/22 14:10:56;;;;;;;1.82;1.57;;;;;;;14.03;61.27;96523.75;1728645;81;25612;-89
2021/05/22 14:13:23;;;;;;;6.60;5.30;;;;;;;14.06;61.45;96525.14;1736979;81;25816;-87
2021/05/22 14:15:50;;;;;;;5.37;3.35;;;;;;;14.10;61.60;96531.71;1741717;81;25584;-88
2021/05/22 14:18:22;;;;;;;7.92;4.75;;;;;;;14.10;61.45;96539.03;1750234;81;25520;-89
2021/05/22 14:20:45;;;;;;;6.53;3.92;;;;;;;14.05;61.20;96541.96;1737470;81;28168;-92
2021/05/22 14:23:11;;;;;;;5.80;3.12;;;;;;;14.00;61.17;96537.85;1741283;81;25713;-87
2021/05/22 14:25:38;;;;;;;4.55;3.22;;;;;;;14.00;61.22;96532.42;1729453;81;25697;-92
2021/05/22 14:28:05;;;;;;;4.30;3.05;;;;;;;14.03;61.37;96535.96;1729017;81;26071;-89
2021/05/22 14:30:32;;;;;;;5.65;3.00;;;;;;;14.11;61.27;96537.96;1732661;81;25704;-92
2021/05/22 14:32:58;;;;;;;6.45;3.60;;;;;;;14.14;61.44;96543.67;1758988;81;27438;-90
2021/05/22 14:35:25;;;;;;;5.90;3.40;;;;;;;14.18;61.28;96545.36;1758062;81;25719;-93
2021/05/22 14:37:52;;;;;;;4.60;3.55;;;;;;;14.26;61.58;96546.25;1728723;81;26174;-85
2021/05/22 14:40:20;;;;;;;3.62;2.42;;;;;;;14.34;61.75;96549.88;1729293;81;26071;-94
2021/05/22 14:42:50;;;;;;;3.30;2.22;;;;;;;14.43;61.43;96547.02;1729216;81;25656;-89
2021/05/22 14:45:21;;;;;;;3.95;2.40;;;;;;;14.48;61.28;96540.28;1728963;81;27888;-93
2021/05/22 14:47:51;;;;;;;5.62;3.40;;;;;;;14.49;61.14;96542.47;1737211;81;25690;-90
2021/05/22 14:50:17;;;;;;;5.97;3.10;;;;;;;14.53;60.98;96538.96;1684839;83;25592;-90
2021/05/22 14:52:44;;;;;;;3.90;2.60;;;;;;;14.55;60.87;96523.23;1692881;84;26202;-88
2021/05/22 14:55:12;;;;;;;5.10;3.25;;;;;;;14.58;60.92;96524.08;1672476;84;26375;-91
2021/05/22 14:57:41;;;;;;;5.42;2.58;;;;;;;14.64;60.87;96531.72;1672698;84;27376;-91
2021/05/22 15:00:14;;;;;;;7.83;3.62;;;;;;;14.68;60.79;96535.03;1673820;84;25241;-94
2021/05/22 15:02:41;;;;;;;24.87;11.80;;;;;;;14.70;60.33;96536.95;1672926;84;25767;-94
2021/05/22 15:05:08;;;;;;;21.57;12.20;;;;;;;14.70;60.10;96537.50;1673486;84;25581;-90
2021/05/22 15:07:35;;;;;;;11.33;6.25;;;;;;;14.71;59.94;96535.88;1672797;84;25591;-94